CDT,Max TemperatureF,Mean TemperatureF,Min TemperatureF,Max Dew PointF,MeanDew PointF,Min DewpointF,Max Humidity, Mean Humidity, Min Humidity, Max Sea Level PressureIn, Mean Sea Level PressureIn, Min Sea Level PressureIn, Max VisibilityMiles, Mean VisibilityMiles, Min VisibilityMiles, Max Wind SpeedMPH, Mean Wind SpeedMPH, Max Gust SpeedMPH,PrecipitationIn, CloudCover, Events, WindDirDegrees
2013-3-1,59,49,39,32,29,25,73,45,28,30.29,30.24,30.19,10,10,10,10,4,22,0.00,1,,315
2013-3-2,50,41,30,30,25,20,88,59,33,30.38,30.32,30.24,10,10,10,10,3,20,0.00,1,,357
2013-3-3,63,44,26,35,27,21,92,54,24,30.35,30.25,30.13,10,10,10,7,2,,0.00,0,,220
2013-3-4,73,59,45,59,51,36,84,68,48,30.82,30.07,29.88,10,10,10,13,5,31,0.00,3,,192
2013-3-5,69,58,46,61,46,25,94,63,21,30.35,30.08,29.81,10,10,10,9,5,21,0.00,4,,279
2013-3-6,64,47,30,32,25,18,82,46,16,31.14,30.46,30.31,10,10,10,7,1,,0.00,0,,15
2013-3-7,64,48,33,38,32,29,89,60,28,30.41,30.34,30.29,10,10,10,5,1,,0.00,0,,100
2013-3-8,72,54,36,49,41,34,93,62,31,31.08,30.36,30.18,10,10,7,6,1,,0.00,0,,55
2013-3-9,70,62,55,61,55,42,88,76,60,30.18,30.03,29.87,10,10,10,8,3,21,0.00,5,Rain,150
2013-3-10,71,60,48,63,56,38,94,84,66,30.07,29.90,29.79,10,9,1,9,5,29,0.14,8,Rain,246
2013-3-11,59,48,37,38,32,28,89,56,33,30.76,30.12,30.03,10,10,10,8,4,,0.00,1,,305
2013-3-12,68,50,32,38,30,23,92,52,18,30.34,30.22,30.15,10,8,2,6,1,,0.00,2,,180
2013-3-13,69,54,39,35,31,24,86,49,18,31.15,30.49,28.28,10,9,5,8,2,,0.00,0,,10
2013-3-14,73,54,36,41,33,27,86,50,21,31.07,30.36,28.21,10,10,10,6,1,,0.00,0,,160
2013-3-15,79,61,43,56,47,41,93,62,31,30.34,30.24,30.14,10,10,7,7,3,17,0.00,1,,203
2013-3-16,79,68,57,57,55,51,94,75,38,30.12,30.03,29.94,10,9,6,9,5,21,0.00,4,,194
2013-3-17,,,,,,,,,,,,,,,,,,,,,,
2013-3-18,87,78,66,65,63,54,81,60,44,30.02,29.85,29.74,10,9,6,9,5,20,0.00,6,,6
2013-3-19,75,63,51,46,41,36,77,46,26,30.11,30.06,30.00,10,10,10,9,6,18,0.00,1,,41
2013-3-20,71,60,45,46,38,26,90,52,20,30.86,30.20,30.07,10,10,7,10,5,20,0.10,3,Rain-Thunderstorm,9
2013-3-21,69,56,42,46,37,31,82,51,29,30.12,30.00,29.86,10,10,10,9,2,,0.00,3,,155
2013-3-22,80,68,57,66,59,46,94,76,58,29.87,29.78,29.68,10,9,1,7,3,16,0.00,6,Rain,139
2013-3-23,72,66,60,66,63,55,100,87,76,29.86,29.73,29.57,10,7,1,6,1,,0.01,8,Rain,82
2013-3-24,60,52,41,55,42,28,94,63,32,30.78,29.92,29.64,10,10,5,13,4,23,0.01,4,Rain,308
2013-3-25,60,48,35,30,21,14,76,43,17,30.40,30.29,30.19,10,10,10,9,3,17,0.00,0,,180
2013-3-26,57,42,27,25,21,16,85,47,22,30.52,30.45,30.40,10,10,10,8,2,,0.00,0,,343
2013-3-27,66,48,30,37,28,23,82,51,21,31.09,30.45,30.31,10,10,10,7,1,,0.00,0,,280
2013-3-28,72,56,39,49,41,35,86,60,28,31.13,30.40,30.27,10,10,10,6,1,,0.00,4,,143
2013-3-29,78,64,50,56,52,48,100,78,38,30.34,30.26,30.21,10,6,0,7,1,,0.00,5,Fog,-1
2013-3-30,75,66,57,61,58,55,94,79,50,30.23,30.13,30.04,10,9,2,10,2,21,0.09,4,Rain,185
2013-3-31,73,65,57,63,59,55,96,89,68,30.07,29.98,29.87,10,6,1,20,3,31,0.72,7,Rain-Thunderstorm,27